createdAt,value
2018-08-30T00:01:23.232Z,80.32
2018-08-30T00:03:51.292Z,80.38
2018-08-30T00:06:19.398Z,80.27
2018-08-30T00:08:47.538Z,80.97
2018-08-30T00:11:15.607Z,80.23
2018-08-30T00:13:43.755Z,80.13
2018-08-30T00:16:12.180Z,80.88
2018-08-30T00:18:40.269Z,80.19
2018-08-30T00:21:08.382Z,80.96
2018-08-30T00:23:36.461Z,80.97
2018-08-30T00:26:05.275Z,81.28
2018-08-30T00:28:33.354Z,80.83
2018-08-30T00:31:01.441Z,81.07
2018-08-30T00:33:29.542Z,80.96
2018-08-30T00:35:57.623Z,80.28
2018-08-30T00:38:25.710Z,80.63
2018-08-30T00:40:53.829Z,79.95
2018-08-30T00:43:21.925Z,80.68
2018-08-30T00:45:49.991Z,80.88
2018-08-30T00:48:18.059Z,80.14
2018-08-30T00:50:46.163Z,80.66
2018-08-30T00:53:14.236Z,80.70
2018-08-30T00:55:42.296Z,81.29
2018-08-30T00:58:10.515Z,81.34
2018-08-30T01:00:38.616Z,80.63
2018-08-30T01:03:06.758Z,80.73
2018-08-30T01:05:35.138Z,80.49
2018-08-30T01:08:03.603Z,80.29
2018-08-30T01:10:31.719Z,80.63
2018-08-30T01:12:59.810Z,80.48
2018-08-30T01:15:28.129Z,80.31
2018-08-30T01:17:56.632Z,80.26
2018-08-30T01:20:24.702Z,80.30
2018-08-30T01:22:52.794Z,80.44
2018-08-30T01:25:21.071Z,80.45
2018-08-30T01:27:49.381Z,80.33
2018-08-30T01:30:17.727Z,81.09
2018-08-30T01:32:46.151Z,80.83
2018-08-30T01:35:14.211Z,81.20
2018-08-30T01:37:42.275Z,80.82
2018-08-30T01:40:10.355Z,80.50
2018-08-30T01:42:38.421Z,81.24
2018-08-30T01:45:06.676Z,80.28
2018-08-30T01:47:34.763Z,81.14
2018-08-30T01:50:02.826Z,80.47
2018-08-30T01:52:30.899Z,80.21
2018-08-30T01:54:59.149Z,81.17
2018-08-30T01:57:27.486Z,81.24
2018-08-30T01:59:55.582Z,80.85
2018-08-30T02:02:23.807Z,80.90
2018-08-30T02:04:51.883Z,80.97
2018-08-30T02:07:19.951Z,80.02
2018-08-30T02:09:48.054Z,80.46
2018-08-30T02:12:16.117Z,79.74
2018-08-30T02:14:44.194Z,80.09
2018-08-30T02:17:12.298Z,80.18
2018-08-30T02:19:40.382Z,80.01
2018-08-30T02:22:08.619Z,79.85
2018-08-30T02:24:36.695Z,79.96
2018-08-30T02:27:04.786Z,79.60
2018-08-30T02:29:33.016Z,79.56
2018-08-30T02:32:01.234Z,79.33
2018-08-30T02:34:29.299Z,80.29
2018-08-30T02:36:57.418Z,80.27
2018-08-30T02:39:25.563Z,79.88
2018-08-30T02:41:53.593Z,79.10
2018-08-30T02:44:21.722Z,79.41
2018-08-30T02:46:49.950Z,79.51
2018-08-30T02:49:18.028Z,79.52
2018-08-30T02:51:46.114Z,79.06
2018-08-30T02:54:14.214Z,79.27
2018-08-30T02:56:42.276Z,79.33
2018-08-30T02:59:10.338Z,79.40
2018-08-30T03:01:38.576Z,79.18
2018-08-30T03:04:06.728Z,78.96
2018-08-30T03:06:34.786Z,78.75
2018-08-30T03:09:03.043Z,78.99
2018-08-30T03:11:31.117Z,79.30
2018-08-30T03:13:59.187Z,78.56
2018-08-30T03:16:27.373Z,78.80
2018-08-30T03:18:55.455Z,78.69
2018-08-30T03:21:23.531Z,78.47
2018-08-30T03:23:51.634Z,78.50
2018-08-30T03:26:19.694Z,78.39
2018-08-30T03:28:47.806Z,79.39
2018-08-30T03:31:15.873Z,79.48
2018-08-30T03:33:43.943Z,78.85
2018-08-30T03:36:12.084Z,79.15
2018-08-30T03:38:40.147Z,78.65
2018-08-30T03:41:08.218Z,78.92
2018-08-30T03:43:36.287Z,79.02
2018-08-30T03:46:04.626Z,78.78
2018-08-30T03:48:32.782Z,79.24
2018-08-30T03:51:00.842Z,78.84
2018-08-30T03:53:28.927Z,78.74
2018-08-30T03:55:56.999Z,78.52
2018-08-30T03:58:25.068Z,78.79
2018-08-30T04:00:53.140Z,78.92
2018-08-30T04:03:21.222Z,78.78
2018-08-30T04:05:49.305Z,78.75
2018-08-30T04:08:17.366Z,79.33
2018-08-30T04:10:45.462Z,79.38
2018-08-30T04:13:13.558Z,79.26
2018-08-30T04:15:41.817Z,78.30
2018-08-30T04:18:09.898Z,78.99
2018-08-30T04:20:37.965Z,79.35
2018-08-30T04:23:06.101Z,78.93
2018-08-30T04:25:40.610Z,79.17
2018-08-30T04:28:08.855Z,78.78
2018-08-30T04:30:37.196Z,79.64
2018-08-30T04:33:05.278Z,79.29
2018-08-30T04:35:33.663Z,78.92
2018-08-30T04:38:01.734Z,79.43
2018-08-30T04:40:29.812Z,77.83
2018-08-30T04:42:58.074Z,78.96
2018-08-30T04:45:26.158Z,78.83
2018-08-30T04:47:54.231Z,79.57
2018-08-30T04:50:22.396Z,79.22
2018-08-30T04:52:50.443Z,79.66
2018-08-30T04:55:19.389Z,79.68
2018-08-30T04:57:47.699Z,79.65
2018-08-30T05:00:15.778Z,79.90
2018-08-30T05:02:44.158Z,80.18
2018-08-30T05:05:12.290Z,79.90
2018-08-30T05:07:40.347Z,80.21
2018-08-30T05:10:08.680Z,80.59
2018-08-30T05:12:36.670Z,79.95
2018-08-30T05:15:05.132Z,79.79
2018-08-30T05:17:33.206Z,79.97
2018-08-30T05:20:01.463Z,79.54
2018-08-30T05:22:29.550Z,79.88
2018-08-30T05:24:57.630Z,80.17
2018-08-30T05:27:25.755Z,79.46
2018-08-30T05:29:53.960Z,79.53
2018-08-30T05:32:22.047Z,79.55
2018-08-30T05:34:50.120Z,79.04
2018-08-30T05:37:18.193Z,79.32
2018-08-30T05:39:46.271Z,78.82
2018-08-30T05:42:14.354Z,79.10
2018-08-30T05:44:42.567Z,78.73
2018-08-30T05:47:10.603Z,78.85
2018-08-30T05:49:38.730Z,79.04
2018-08-30T05:52:06.929Z,78.90
2018-08-30T05:54:35.011Z,78.62
2018-08-30T05:57:03.485Z,78.03
2018-08-30T05:59:31.454Z,78.69
2018-08-30T06:01:59.650Z,78.16
2018-08-30T06:04:46.607Z,78.12
2018-08-30T06:07:14.981Z,77.81
2018-08-30T06:09:43.072Z,77.32
2018-08-30T06:12:11.182Z,77.78
2018-08-30T06:14:39.589Z,77.79
2018-08-30T06:17:07.695Z,77.67
2018-08-30T06:19:35.806Z,76.83
2018-08-30T06:22:04.674Z,76.34
2018-08-30T06:24:32.750Z,76.54
2018-08-30T06:27:01.794Z,76.85
2018-08-30T06:29:29.880Z,77.03
2018-08-30T06:31:57.992Z,77.16
2018-08-30T06:34:26.228Z,76.42
2018-08-30T06:36:54.311Z,77.04
2018-08-30T06:39:22.407Z,77.28
2018-08-30T06:41:50.497Z,76.67
2018-08-30T06:44:18.570Z,76.16
2018-08-30T06:46:46.687Z,76.15
2018-08-30T06:49:14.815Z,76.24
2018-08-30T06:51:43.384Z,76.69
2018-08-30T06:54:11.494Z,77.09
2018-08-30T06:56:39.902Z,76.39
2018-08-30T06:59:08.875Z,75.93
2018-08-30T07:01:37.131Z,76.78
2018-08-30T07:04:05.435Z,75.67
2018-08-30T07:06:33.495Z,75.74
2018-08-30T07:09:01.649Z,75.20
2018-08-30T07:11:29.841Z,75.15
2018-08-30T07:13:57.891Z,75.15
2018-08-30T07:16:26.120Z,75.91
2018-08-30T07:18:54.192Z,75.16
2018-08-30T07:21:22.291Z,74.71
2018-08-30T07:23:50.706Z,74.16
2018-08-30T07:26:18.799Z,73.56
2018-08-30T07:28:46.915Z,73.95
2018-08-30T07:31:15.223Z,73.84
2018-08-30T07:33:43.286Z,72.48
2018-08-30T07:36:11.350Z,71.92
2018-08-30T07:38:39.495Z,72.07
2018-08-30T07:41:07.613Z,72.15
2018-08-30T07:43:36.049Z,71.13
2018-08-30T07:46:05.074Z,69.91
2018-08-30T07:48:33.158Z,70.38
2018-08-30T07:51:01.367Z,68.98
2018-08-30T07:53:29.405Z,69.13
2018-08-30T07:55:57.662Z,68.19
2018-08-30T07:58:26.060Z,67.71
2018-08-30T08:00:54.126Z,66.37
2018-08-30T08:03:22.210Z,66.11
2018-08-30T08:05:50.646Z,65.47
2018-08-30T08:08:18.718Z,65.55
2018-08-30T08:10:46.992Z,65.31
2018-08-30T08:13:15.102Z,64.74
2018-08-30T08:15:43.171Z,64.18
2018-08-30T08:18:11.346Z,63.76
2018-08-30T08:20:39.431Z,63.08
2018-08-30T08:23:07.530Z,62.62
2018-08-30T08:25:35.623Z,63.16
2018-08-30T08:28:03.732Z,62.66
2018-08-30T08:30:31.870Z,62.48
2018-08-30T08:33:00.128Z,62.00
2018-08-30T08:35:28.203Z,62.50
2018-08-30T08:37:56.400Z,61.95
2018-08-30T08:40:24.541Z,62.22
2018-08-30T08:42:52.723Z,61.34
2018-08-30T08:45:20.813Z,61.54
2018-08-30T08:47:49.016Z,60.35
2018-08-30T08:50:17.043Z,59.92
2018-08-30T08:52:45.157Z,60.28
2018-08-30T08:55:13.232Z,59.56
2018-08-30T08:57:41.299Z,60.56
2018-08-30T09:00:09.403Z,59.56
2018-08-30T09:02:37.641Z,59.31
2018-08-30T09:05:06.059Z,59.10
2018-08-30T09:07:34.199Z,58.35
2018-08-30T09:10:02.298Z,59.61
2018-08-30T09:12:30.364Z,59.33
2018-08-30T09:14:58.515Z,59.51
2018-08-30T09:17:26.592Z,58.39
2018-08-30T09:19:54.671Z,58.43
2018-08-30T09:22:22.739Z,58.19
2018-08-30T09:24:50.822Z,58.88
2018-08-30T09:27:19.206Z,59.41
2018-08-30T09:29:47.278Z,58.64
2018-08-30T09:32:15.499Z,58.78
2018-08-30T09:34:43.742Z,58.64
2018-08-30T09:37:14.127Z,58.42
2018-08-30T09:39:42.386Z,58.90
2018-08-30T09:42:10.462Z,58.42
2018-08-30T09:44:38.534Z,57.53
2018-08-30T09:47:06.667Z,57.19
2018-08-30T09:49:35.214Z,56.41
2018-08-30T09:52:03.465Z,58.00
2018-08-30T09:54:31.515Z,57.40
2018-08-30T09:56:59.668Z,56.84
2018-08-30T09:59:27.710Z,58.04
2018-08-30T10:02:06.950Z,57.54
2018-08-30T10:04:35.343Z,57.71
2018-08-30T10:07:03.407Z,57.94
2018-08-30T10:09:31.505Z,57.42
2018-08-30T10:11:59.640Z,57.68
2018-08-30T10:14:27.918Z,56.38
2018-08-30T10:16:56.260Z,55.06
2018-08-30T10:19:24.394Z,54.81
2018-08-30T10:21:52.918Z,55.14
2018-08-30T10:24:21.015Z,56.41
2018-08-30T10:26:49.255Z,56.94
2018-08-30T10:29:17.432Z,55.81
2018-08-30T10:31:45.536Z,56.05
2018-08-30T10:34:13.630Z,52.53
2018-08-30T10:36:42.053Z,52.74
2018-08-30T10:39:10.125Z,53.67
2018-08-30T10:41:38.200Z,52.93
2018-08-30T10:44:06.296Z,52.78
2018-08-30T10:46:34.510Z,52.94
2018-08-30T10:49:02.597Z,52.59
2018-08-30T10:51:31.095Z,51.93
2018-08-30T10:53:59.579Z,50.75
2018-08-30T10:56:27.711Z,51.64
2018-08-30T10:58:55.738Z,50.95
2018-08-30T11:01:23.811Z,51.14
2018-08-30T11:03:51.921Z,52.38
2018-08-30T11:06:19.971Z,50.65
2018-08-30T11:08:48.042Z,51.04
2018-08-30T11:11:16.113Z,51.63
2018-08-30T11:13:44.188Z,52.57
2018-08-30T11:16:12.294Z,51.73
2018-08-30T11:18:40.363Z,51.57
2018-08-30T11:21:08.615Z,52.83
2018-08-30T11:23:36.986Z,53.72
2018-08-30T11:26:05.019Z,52.95
2018-08-30T11:28:33.083Z,53.63
2018-08-30T11:31:01.218Z,53.63
2018-08-30T11:33:29.349Z,54.11
2018-08-30T11:35:57.648Z,52.57
2018-08-30T11:38:25.871Z,52.50
2018-08-30T11:40:53.942Z,52.61
2018-08-30T11:43:22.190Z,51.14
2018-08-30T11:45:50.293Z,51.27
2018-08-30T11:48:18.411Z,51.17
2018-08-30T11:50:46.490Z,50.22
2018-08-30T11:53:14.578Z,51.86
2018-08-30T11:55:42.706Z,52.41
2018-08-30T11:58:11.220Z,52.26
2018-08-30T12:00:39.411Z,52.53
2018-08-30T12:03:07.453Z,55.66
2018-08-30T12:05:35.550Z,56.78
2018-08-30T12:08:03.945Z,57.21
2018-08-30T12:10:31.990Z,58.80
2018-08-30T12:13:00.072Z,61.68
2018-08-30T12:15:28.698Z,62.94
2018-08-30T12:17:56.979Z,63.03
2018-08-30T12:20:25.144Z,63.36
2018-08-30T12:22:53.432Z,63.02
2018-08-30T12:25:21.500Z,64.08
2018-08-30T12:27:49.622Z,64.44
2018-08-30T12:30:17.930Z,64.64
2018-08-30T12:32:46.155Z,64.98
2018-08-30T12:35:14.304Z,64.50
2018-08-30T12:37:42.259Z,64.72
2018-08-30T12:40:10.673Z,65.86
2018-08-30T12:42:38.731Z,65.71
2018-08-30T12:45:07.005Z,65.55
2018-08-30T12:47:35.474Z,65.32
2018-08-30T12:50:03.633Z,66.50
2018-08-30T12:52:31.752Z,65.52
2018-08-30T12:55:00.029Z,65.23
2018-08-30T12:57:28.109Z,64.32
2018-08-30T12:59:56.241Z,62.74
2018-08-30T13:02:24.764Z,63.72
2018-08-30T13:04:52.928Z,62.01
2018-08-30T13:07:23.252Z,61.64
2018-08-30T13:09:51.604Z,59.88
2018-08-30T13:12:19.774Z,60.72
2018-08-30T13:14:47.757Z,60.05
2018-08-30T13:17:15.776Z,59.37
2018-08-30T13:19:44.238Z,59.19
2018-08-30T13:22:12.407Z,58.63
2018-08-30T13:24:40.468Z,57.58
2018-08-30T13:27:08.470Z,57.94
2018-08-30T13:29:36.675Z,58.00
2018-08-30T13:32:05.737Z,57.74
2018-08-30T13:34:33.705Z,58.78
2018-08-30T13:37:01.871Z,58.83
2018-08-30T13:39:30.154Z,56.69
2018-08-30T13:41:58.187Z,55.00
2018-08-30T13:44:26.933Z,56.18
2018-08-30T13:46:54.837Z,56.17
2018-08-30T13:49:23.006Z,56.98
2018-08-30T13:51:51.158Z,56.72
2018-08-30T13:54:19.294Z,58.12
2018-08-30T13:56:47.363Z,57.28
2018-08-30T13:59:15.406Z,57.96
2018-08-30T14:01:43.481Z,58.65
2018-08-30T14:04:11.649Z,57.90
2018-08-30T14:06:39.629Z,57.72
2018-08-30T14:09:07.891Z,58.65
2018-08-30T14:11:37.069Z,58.37
2018-08-30T14:14:05.181Z,58.57
2018-08-30T14:16:39.721Z,58.35
2018-08-30T14:19:07.858Z,57.29
2018-08-30T14:21:35.931Z,56.96
2018-08-30T14:24:04.946Z,56.46
2018-08-30T14:26:33.039Z,56.99
2018-08-30T14:29:01.144Z,56.84
2018-08-30T14:31:29.236Z,55.81
2018-08-30T14:33:57.315Z,55.73
2018-08-30T14:36:25.407Z,56.50
2018-08-30T14:38:53.508Z,55.73
2018-08-30T14:41:21.811Z,56.48
2018-08-30T14:43:49.747Z,56.52
2018-08-30T14:46:17.847Z,56.41
2018-08-30T14:48:45.952Z,56.23
2018-08-30T14:51:14.054Z,55.29
2018-08-30T14:53:42.285Z,54.70
2018-08-30T14:56:10.254Z,54.38
2018-08-30T14:58:38.323Z,53.81
2018-08-30T15:01:06.408Z,54.78
2018-08-30T15:03:34.488Z,55.30
2018-08-30T15:06:02.693Z,54.85
2018-08-30T15:08:31.065Z,53.95
2018-08-30T15:10:59.176Z,54.11
2018-08-30T15:13:27.283Z,54.51
2018-08-30T15:15:55.573Z,54.84
2018-08-30T15:18:23.634Z,54.07
2018-08-30T15:20:51.744Z,54.45
2018-08-30T15:23:19.943Z,54.92
2018-08-30T15:25:47.935Z,54.94
2018-08-30T15:28:16.047Z,54.03
2018-08-30T15:30:44.094Z,54.28
2018-08-30T15:33:12.208Z,54.60
2018-08-30T15:35:40.296Z,54.81
2018-08-30T15:38:08.419Z,55.11
2018-08-30T15:40:36.490Z,54.89
2018-08-30T15:43:05.129Z,54.45
2018-08-30T15:45:33.250Z,54.33
2018-08-30T15:48:01.408Z,54.27
2018-08-30T15:50:29.727Z,53.93
2018-08-30T15:52:57.832Z,54.51
2018-08-30T15:55:25.909Z,54.90
2018-08-30T15:57:53.975Z,55.10
2018-08-30T16:00:22.202Z,54.61
2018-08-30T16:02:50.210Z,54.81
2018-08-30T16:05:18.331Z,55.02
2018-08-30T16:07:46.398Z,54.35
2018-08-30T16:10:15.022Z,54.67
2018-08-30T16:12:43.443Z,54.91
2018-08-30T16:15:11.498Z,54.53
2018-08-30T16:17:39.579Z,54.82
2018-08-30T16:20:07.739Z,54.08
2018-08-30T16:22:57.127Z,54.50
2018-08-30T16:25:25.227Z,55.14
2018-08-30T16:27:53.335Z,54.71
2018-08-30T16:33:14.227Z,54.96
2018-08-30T16:35:42.599Z,55.92
2018-08-30T16:41:03.856Z,55.47
2018-08-30T16:43:31.852Z,55.47
2018-08-30T16:46:00.219Z,56.39
2018-08-30T16:48:28.308Z,56.60
2018-08-30T16:50:56.396Z,56.88
2018-08-30T16:53:24.578Z,57.13
2018-08-30T16:55:52.567Z,56.47
2018-08-30T16:58:20.644Z,56.02
2018-08-30T17:00:48.734Z,56.01
2018-08-30T17:03:16.810Z,55.99
2018-08-30T17:05:44.893Z,56.03
2018-08-30T17:08:13.052Z,56.46
2018-08-30T17:10:41.119Z,55.62
2018-08-30T17:13:09.199Z,56.00
2018-08-30T17:15:37.305Z,56.39
2018-08-30T17:18:05.436Z,56.53
2018-08-30T17:20:37.063Z,56.60
2018-08-30T17:23:05.176Z,56.66
2018-08-30T17:25:33.245Z,57.12
2018-08-30T17:28:01.477Z,57.23
2018-08-30T17:30:29.583Z,56.58
2018-08-30T17:32:57.656Z,57.04
2018-08-30T17:35:26.189Z,56.89
2018-08-30T17:37:54.326Z,56.56
2018-08-30T17:40:22.429Z,56.43
2018-08-30T17:42:51.136Z,56.19
2018-08-30T17:45:19.311Z,56.77
2018-08-30T17:47:47.325Z,56.28
2018-08-30T17:50:15.700Z,56.67
2018-08-30T17:52:43.731Z,56.44
2018-08-30T17:55:12.015Z,57.38
2018-08-30T17:57:40.091Z,57.51
2018-08-30T18:00:09.859Z,57.42
2018-08-30T18:02:42.630Z,58.12
2018-08-30T18:05:10.709Z,57.98
2018-08-30T18:07:38.807Z,57.76
2018-08-30T18:10:08.125Z,57.99
2018-08-30T18:12:36.326Z,57.91
2018-08-30T18:15:05.165Z,57.50
2018-08-30T18:17:33.236Z,57.67
2018-08-30T18:20:01.314Z,57.84
2018-08-30T18:22:29.442Z,58.34
2018-08-30T18:24:57.672Z,57.75
2018-08-30T18:27:25.757Z,57.61
2018-08-30T18:29:53.847Z,58.43
2018-08-30T18:32:21.946Z,58.49
2018-08-30T18:34:50.082Z,58.69
2018-08-30T18:37:18.165Z,58.47
2018-08-30T18:39:46.407Z,58.53
2018-08-30T18:42:14.586Z,58.30
2018-08-30T18:44:42.635Z,58.59
2018-08-30T18:47:10.723Z,59.09
2018-08-30T18:49:38.852Z,58.59
2018-08-30T18:52:06.930Z,58.94
2018-08-30T18:54:35.236Z,58.97
2018-08-30T18:57:03.377Z,59.46
2018-08-30T18:59:31.454Z,59.21
2018-08-30T19:01:59.648Z,58.76
2018-08-30T19:04:27.731Z,59.01
2018-08-30T19:06:55.853Z,59.80
2018-08-30T19:09:24.102Z,58.93
2018-08-30T19:11:52.216Z,59.45
2018-08-30T19:14:20.306Z,59.09
2018-08-30T19:17:00.179Z,58.90
2018-08-30T19:19:28.439Z,59.30
2018-08-30T19:21:56.523Z,59.77
2018-08-30T19:24:30.020Z,60.52
2018-08-30T19:26:58.094Z,59.70
2018-08-30T19:29:26.184Z,60.30
2018-08-30T19:31:54.269Z,60.60
2018-08-30T19:34:22.388Z,60.76
2018-08-30T19:36:50.671Z,61.05
2018-08-30T19:39:18.768Z,60.96
2018-08-30T19:41:46.850Z,60.66
2018-08-30T19:44:14.966Z,61.07
2018-08-30T19:46:43.038Z,61.36
2018-08-30T19:49:11.120Z,61.64
2018-08-30T19:51:39.205Z,61.93
2018-08-30T19:54:07.300Z,61.53
2018-08-30T19:56:35.413Z,61.96
2018-08-30T19:59:05.526Z,61.97
2018-08-30T20:01:33.634Z,62.22
2018-08-30T20:04:01.711Z,62.42
2018-08-30T20:06:29.806Z,62.41
2018-08-30T20:08:57.936Z,63.12
2018-08-30T20:11:26.030Z,62.95
2018-08-30T20:13:54.129Z,63.03
2018-08-30T20:16:23.106Z,63.29
2018-08-30T20:18:51.171Z,62.73
2018-08-30T20:21:19.251Z,62.75
2018-08-30T20:23:47.332Z,63.04
2018-08-30T20:26:15.406Z,63.91
2018-08-30T20:28:43.480Z,63.15
2018-08-30T20:31:11.735Z,63.74
2018-08-30T20:33:39.846Z,64.08
2018-08-30T20:36:07.914Z,63.31
2018-08-30T20:38:36.021Z,63.77
2018-08-30T20:41:05.021Z,64.27
2018-08-30T20:43:33.102Z,64.35
2018-08-30T20:46:01.248Z,63.66
2018-08-30T20:48:29.335Z,64.20
2018-08-30T20:50:57.403Z,64.68
2018-08-30T20:53:25.488Z,63.87
2018-08-30T20:55:53.765Z,63.86
2018-08-30T20:58:21.873Z,64.34
2018-08-30T21:00:50.999Z,64.41
2018-08-30T21:03:19.092Z,64.72
2018-08-30T21:05:47.675Z,64.54
2018-08-30T21:08:15.735Z,64.40
2018-08-30T21:10:43.876Z,64.59
2018-08-30T21:13:12.006Z,64.78
2018-08-30T21:15:40.074Z,65.24
2018-08-30T21:18:09.042Z,65.56
2018-08-30T21:20:37.122Z,64.95
2018-08-30T21:23:05.418Z,64.74
2018-08-30T21:25:33.582Z,65.29
2018-08-30T21:28:01.708Z,65.05
2018-08-30T21:30:29.815Z,65.11
2018-08-30T21:32:57.894Z,65.25
2018-08-30T21:35:25.982Z,65.02
2018-08-30T21:37:54.060Z,64.75
2018-08-30T21:40:22.119Z,64.78
2018-08-30T21:42:50.255Z,64.79
2018-08-30T21:45:18.480Z,65.01
2018-08-30T21:47:46.558Z,65.17
2018-08-30T21:50:14.683Z,65.26
2018-08-30T21:52:42.771Z,65.61
2018-08-30T21:55:10.851Z,65.40
2018-08-30T21:57:38.939Z,65.59
2018-08-30T22:00:07.447Z,66.03
2018-08-30T22:02:35.548Z,66.11
2018-08-30T22:05:03.607Z,65.51
2018-08-30T22:07:31.815Z,65.63
2018-08-30T22:09:59.888Z,66.25
2018-08-30T22:12:27.994Z,66.07
2018-08-30T22:14:56.196Z,66.17
2018-08-30T22:17:24.316Z,66.47
2018-08-30T22:19:52.372Z,66.20
2018-08-30T22:22:20.618Z,66.36
2018-08-30T22:24:48.678Z,66.67
2018-08-30T22:27:16.742Z,66.31
2018-08-30T22:29:45.020Z,66.26
2018-08-30T22:32:13.074Z,65.75
2018-08-30T22:34:41.156Z,66.03
2018-08-30T22:37:09.411Z,65.87
2018-08-30T22:39:37.565Z,66.05
2018-08-30T22:42:05.779Z,66.30
2018-08-30T22:44:34.035Z,65.95
2018-08-30T22:47:02.176Z,66.02
2018-08-30T22:49:30.311Z,66.12
2018-08-30T22:51:58.529Z,66.04
2018-08-30T22:54:26.624Z,66.12
2018-08-30T22:56:54.703Z,66.21
2018-08-30T22:59:22.784Z,66.79
2018-08-30T23:01:51.467Z,67.24
2018-08-30T23:04:19.678Z,66.90
2018-08-30T23:06:47.863Z,66.73
2018-08-30T23:09:15.898Z,66.77
2018-08-30T23:11:43.972Z,67.18
2018-08-30T23:14:12.039Z,67.52
2018-08-30T23:16:40.171Z,67.45
2018-08-30T23:19:08.426Z,66.89
2018-08-30T23:21:36.479Z,67.33
2018-08-30T23:24:05.051Z,67.62
2018-08-30T23:26:33.548Z,66.85
2018-08-30T23:29:01.635Z,67.52
2018-08-30T23:31:29.711Z,67.38
2018-08-30T23:33:57.976Z,67.70
2018-08-30T23:36:26.044Z,67.82
2018-08-30T23:38:54.108Z,68.03
2018-08-30T23:41:22.363Z,67.63
2018-08-30T23:43:50.415Z,68.00
2018-08-30T23:46:18.479Z,67.86
2018-08-30T23:48:46.588Z,67.81
2018-08-30T23:51:14.701Z,67.40
2018-08-30T23:53:42.786Z,68.09
2018-08-30T23:56:10.868Z,67.60
2018-08-30T23:58:50.219Z,67.62
